sensor_id;sensor_type;location;lat;lon;timestamp;pressure;altitude;pressure_sealevel;temperature;humidity
34073;BME280;20346;52.702;16.886;2023-04-08T00:00:06;101322.47;;;7.21;72.50
34073;BME280;20346;52.702;16.886;2023-04-08T00:02:39;101322.96;;;7.18;72.41
34073;BME280;20346;52.702;16.886;2023-04-08T00:05:14;101325.68;;;7.16;72.61
34073;BME280;20346;52.702;16.886;2023-04-08T00:07:48;101331.48;;;7.12;72.56
34073;BME280;20346;52.702;16.886;2023-04-08T00:10:22;101336.92;;;7.09;72.46
34073;BME280;20346;52.702;16.886;2023-04-08T00:12:57;101341.87;;;7.07;72.47
34073;BME280;20346;52.702;16.886;2023-04-08T00:15:30;101349.05;;;7.04;72.44
34073;BME280;20346;52.702;16.886;2023-04-08T00:23:42;101350.09;;;6.89;72.62
34073;BME280;20346;52.702;16.886;2023-04-08T00:29:06;101356.33;;;6.80;72.61
34073;BME280;20346;52.702;16.886;2023-04-08T00:37:18;101367.19;;;6.69;72.58
34073;BME280;20346;52.702;16.886;2023-04-08T00:39:53;101364.39;;;6.64;72.69
34073;BME280;20346;52.702;16.886;2023-04-08T00:45:24;101360.36;;;6.57;72.57
34073;BME280;20346;52.702;16.886;2023-04-08T00:50:45;101373.14;;;6.51;72.71
34073;BME280;20346;52.702;16.886;2023-04-08T00:53:20;101375.17;;;6.50;72.67
34073;BME280;20346;52.702;16.886;2023-04-08T00:58:41;101378.91;;;6.48;72.62
34073;BME280;20346;52.702;16.886;2023-04-08T01:01:18;101379.23;;;6.46;72.63
34073;BME280;20346;52.702;16.886;2023-04-08T01:09:01;101385.27;;;6.37;72.64
34073;BME280;20346;52.702;16.886;2023-04-08T01:11:34;101386.24;;;6.33;72.71
34073;BME280;20346;52.702;16.886;2023-04-08T01:14:07;101387.39;;;6.29;72.79
34073;BME280;20346;52.702;16.886;2023-04-08T01:19:29;101400.52;;;6.23;72.71
34073;BME280;20346;52.702;16.886;2023-04-08T01:22:06;101398.61;;;6.21;72.70
34073;BME280;20346;52.702;16.886;2023-04-08T01:24:38;101401.49;;;6.19;72.77
34073;BME280;20346;52.702;16.886;2023-04-08T01:27:10;101397.88;;;6.17;72.75
34073;BME280;20346;52.702;16.886;2023-04-08T01:29:43;101397.84;;;6.15;72.80
34073;BME280;20346;52.702;16.886;2023-04-08T01:32:17;101398.51;;;6.14;72.81
34073;BME280;20346;52.702;16.886;2023-04-08T01:34:50;101399.17;;;6.12;72.74
34073;BME280;20346;52.702;16.886;2023-04-08T01:37:24;101397.11;;;6.13;72.90
34073;BME280;20346;52.702;16.886;2023-04-08T01:39:57;101399.52;;;6.12;72.92
34073;BME280;20346;52.702;16.886;2023-04-08T01:42:30;101398.80;;;6.11;72.97
34073;BME280;20346;52.702;16.886;2023-04-08T01:45:11;101400.66;;;6.10;72.96
34073;BME280;20346;52.702;16.886;2023-04-08T01:47:51;101402.87;;;6.08;73.00
34073;BME280;20346;52.702;16.886;2023-04-08T01:50:31;101407.30;;;6.08;72.96
34073;BME280;20346;52.702;16.886;2023-04-08T01:53:11;101416.36;;;6.07;72.94
34073;BME280;20346;52.702;16.886;2023-04-08T01:58:45;101417.00;;;6.03;72.97
34073;BME280;20346;52.702;16.886;2023-04-08T02:07:13;101427.13;;;5.95;73.01
34073;BME280;20346;52.702;16.886;2023-04-08T02:09:53;101428.13;;;5.93;73.03
34073;BME280;20346;52.702;16.886;2023-04-08T02:12:33;101429.11;;;5.90;73.02
34073;BME280;20346;52.702;16.886;2023-04-08T02:15:15;101431.97;;;5.88;73.03
34073;BME280;20346;52.702;16.886;2023-04-08T02:17:57;101433.10;;;5.85;73.03
34073;BME280;20346;52.702;16.886;2023-04-08T02:20:36;101434.42;;;5.82;72.99
34073;BME280;20346;52.702;16.886;2023-04-08T02:32:00;101442.42;;;5.68;73.15
34073;BME280;20346;52.702;16.886;2023-04-08T02:34:39;101446.66;;;5.66;73.18
34073;BME280;20346;52.702;16.886;2023-04-08T02:48:56;101460.71;;;5.49;73.05
34073;BME280;20346;52.702;16.886;2023-04-08T02:51:36;101471.76;;;5.45;73.09
34073;BME280;20346;52.702;16.886;2023-04-08T02:57:11;101481.69;;;5.37;73.14
34073;BME280;20346;52.702;16.886;2023-04-08T02:59:52;101484.02;;;5.33;73.16
34073;BME280;20346;52.702;16.886;2023-04-08T03:05:30;101490.71;;;5.26;73.17
34073;BME280;20346;52.702;16.886;2023-04-08T03:11:05;101495.05;;;5.20;73.28
34073;BME280;20346;52.702;16.886;2023-04-08T03:13:46;101496.73;;;5.17;73.19
34073;BME280;20346;52.702;16.886;2023-04-08T03:16:27;101500.94;;;5.15;73.20
34073;BME280;20346;52.702;16.886;2023-04-08T03:19:07;101506.52;;;5.12;73.34
34073;BME280;20346;52.702;16.886;2023-04-08T03:21:48;101506.10;;;5.08;73.29
34073;BME280;20346;52.702;16.886;2023-04-08T03:27:22;101503.92;;;5.02;73.26
34073;BME280;20346;52.702;16.886;2023-04-08T03:35:50;101511.11;;;4.94;73.27
34073;BME280;20346;52.702;16.886;2023-04-08T03:38:31;101511.91;;;4.92;73.22
34073;BME280;20346;52.702;16.886;2023-04-08T03:44:05;101513.85;;;4.87;73.12
34073;BME280;20346;52.702;16.886;2023-04-08T03:46:46;101519.61;;;4.85;73.17
34073;BME280;20346;52.702;16.886;2023-04-08T03:49:26;101517.50;;;4.82;73.11
34073;BME280;20346;52.702;16.886;2023-04-08T03:52:07;101519.48;;;4.79;73.13
34073;BME280;20346;52.702;16.886;2023-04-08T04:03:29;101524.35;;;4.59;73.00
34073;BME280;20346;52.702;16.886;2023-04-08T04:09:03;101529.77;;;4.50;73.01
34073;BME280;20346;52.702;16.886;2023-04-08T04:11:45;101533.06;;;4.44;73.05
34073;BME280;20346;52.702;16.886;2023-04-08T04:14:24;101536.48;;;4.38;73.06
34073;BME280;20346;52.702;16.886;2023-04-08T04:17:04;101538.30;;;4.35;73.06
34073;BME280;20346;52.702;16.886;2023-04-08T04:22:41;101543.16;;;4.25;73.09
34073;BME280;20346;52.702;16.886;2023-04-08T04:28:15;101551.96;;;4.14;73.04
34073;BME280;20346;52.702;16.886;2023-04-08T04:30:55;101555.15;;;4.11;72.97
34073;BME280;20346;52.702;16.886;2023-04-08T04:33:35;101554.42;;;4.03;72.88
34073;BME280;20346;52.702;16.886;2023-04-08T04:36:15;101560.91;;;3.97;72.90
34073;BME280;20346;52.702;16.886;2023-04-08T04:38:55;101564.54;;;3.92;73.01
34073;BME280;20346;52.702;16.886;2023-04-08T04:41:35;101575.66;;;3.87;73.00
34073;BME280;20346;52.702;16.886;2023-04-08T04:44:15;101575.73;;;3.83;73.09
34073;BME280;20346;52.702;16.886;2023-04-08T04:46:55;101579.70;;;3.85;73.18
34073;BME280;20346;52.702;16.886;2023-04-08T04:49:35;101581.27;;;3.86;73.11
34073;BME280;20346;52.702;16.886;2023-04-08T04:52:15;101586.89;;;3.86;73.08
34073;BME280;20346;52.702;16.886;2023-04-08T04:54:56;101589.27;;;3.86;73.11
34073;BME280;20346;52.702;16.886;2023-04-08T04:57:35;101592.02;;;3.86;73.06
34073;BME280;20346;52.702;16.886;2023-04-08T05:00:15;101589.41;;;3.85;73.06
34073;BME280;20346;52.702;16.886;2023-04-08T05:02:55;101590.23;;;3.84;73.03
34073;BME280;20346;52.702;16.886;2023-04-08T05:05:35;101587.08;;;3.87;73.19
34073;BME280;20346;52.702;16.886;2023-04-08T05:08:15;101592.39;;;3.94;73.35
34073;BME280;20346;52.702;16.886;2023-04-08T05:10:55;101595.20;;;4.03;73.42
34073;BME280;20346;52.702;16.886;2023-04-08T05:13:35;101596.41;;;4.18;73.58
34073;BME280;20346;52.702;16.886;2023-04-08T05:16:26;101600.63;;;4.36;73.66
34073;BME280;20346;52.702;16.886;2023-04-08T05:19:07;101597.18;;;4.55;73.69
34073;BME280;20346;52.702;16.886;2023-04-08T05:21:47;101598.02;;;4.70;73.60
34073;BME280;20346;52.702;16.886;2023-04-08T05:24:27;101604.25;;;4.81;73.55
34073;BME280;20346;52.702;16.886;2023-04-08T05:27:07;101608.63;;;4.92;73.59
34073;BME280;20346;52.702;16.886;2023-04-08T05:29:48;101608.11;;;5.00;73.56
34073;BME280;20346;52.702;16.886;2023-04-08T05:32:28;101615.08;;;5.06;73.56
34073;BME280;20346;52.702;16.886;2023-04-08T05:35:08;101614.52;;;5.11;73.57
34073;BME280;20346;52.702;16.886;2023-04-08T05:37:48;101618.88;;;5.15;73.54
34073;BME280;20346;52.702;16.886;2023-04-08T05:40:28;101619.58;;;5.16;73.51
34073;BME280;20346;52.702;16.886;2023-04-08T05:43:08;101621.36;;;5.20;73.63
34073;BME280;20346;52.702;16.886;2023-04-08T05:45:48;101621.35;;;5.28;73.69
34073;BME280;20346;52.702;16.886;2023-04-08T05:48:28;101619.05;;;5.39;73.82
34073;BME280;20346;52.702;16.886;2023-04-08T05:51:14;101618.86;;;5.55;73.88
34073;BME280;20346;52.702;16.886;2023-04-08T05:53:54;101622.25;;;5.71;73.95
34073;BME280;20346;52.702;16.886;2023-04-08T05:56:34;101622.12;;;5.83;73.81
34073;BME280;20346;52.702;16.886;2023-04-08T05:59:14;101626.28;;;5.92;73.91
34073;BME280;20346;52.702;16.886;2023-04-08T06:01:54;101630.65;;;6.06;73.90
34073;BME280;20346;52.702;16.886;2023-04-08T06:04:34;101632.81;;;6.21;74.03
34073;BME280;20346;52.702;16.886;2023-04-08T06:07:14;101637.54;;;6.38;73.95
34073;BME280;20346;52.702;16.886;2023-04-08T06:09:54;101635.85;;;6.49;73.92
34073;BME280;20346;52.702;16.886;2023-04-08T06:12:34;101639.86;;;6.63;73.93
34073;BME280;20346;52.702;16.886;2023-04-08T06:15:14;101642.59;;;6.96;74.16
34073;BME280;20346;52.702;16.886;2023-04-08T06:17:54;101643.20;;;7.53;74.23
34073;BME280;20346;52.702;16.886;2023-04-08T06:20:41;101645.67;;;7.89;73.70
34073;BME280;20346;52.702;16.886;2023-04-08T06:23:21;101649.80;;;7.89;73.51
34073;BME280;20346;52.702;16.886;2023-04-08T06:26:04;101654.91;;;7.86;73.62
34073;BME280;20346;52.702;16.886;2023-04-08T06:28:50;101654.73;;;8.51;74.01
34073;BME280;20346;52.702;16.886;2023-04-08T06:34:24;101661.39;;;10.44;73.96
34073;BME280;20346;52.702;16.886;2023-04-08T06:39:58;101664.52;;;11.98;73.43
34073;BME280;20346;52.702;16.886;2023-04-08T06:42:43;101670.42;;;12.72;72.68
34073;BME280;20346;52.702;16.886;2023-04-08T06:45:23;101671.92;;;13.17;72.58
34073;BME280;20346;52.702;16.886;2023-04-08T06:48:08;101674.92;;;13.60;72.57
34073;BME280;20346;52.702;16.886;2023-04-08T06:51:34;101681.23;;;13.97;71.90
34073;BME280;20346;52.702;16.886;2023-04-08T06:54:31;101680.38;;;13.96;72.05
34073;BME280;20346;52.702;16.886;2023-04-08T06:57:06;101684.52;;;14.20;71.74
34073;BME280;20346;52.702;16.886;2023-04-08T06:59:49;101689.89;;;14.34;72.13
34073;BME280;20346;52.702;16.886;2023-04-08T07:08:08;101695.70;;;15.78;71.81
34073;BME280;20346;52.702;16.886;2023-04-08T07:11:07;101702.33;;;15.78;71.15
34073;BME280;20346;52.702;16.886;2023-04-08T07:16:39;101705.75;;;15.81;71.67
34073;BME280;20346;52.702;16.886;2023-04-08T07:19:22;101706.80;;;16.44;71.31
34073;BME280;20346;52.702;16.886;2023-04-08T07:21:56;101712.73;;;16.35;70.57
34073;BME280;20346;52.702;16.886;2023-04-08T07:24:30;101714.66;;;15.61;70.14
34073;BME280;20346;52.702;16.886;2023-04-08T07:27:03;101724.81;;;14.54;70.50
34073;BME280;20346;52.702;16.886;2023-04-08T07:29:37;101717.24;;;13.56;70.71
34073;BME280;20346;52.702;16.886;2023-04-08T07:32:12;101724.66;;;13.03;71.22
34073;BME280;20346;52.702;16.886;2023-04-08T07:34:45;101726.23;;;12.58;71.23
34073;BME280;20346;52.702;16.886;2023-04-08T07:37:45;101725.41;;;12.23;71.42
34073;BME280;20346;52.702;16.886;2023-04-08T07:40:19;101725.46;;;12.11;71.55
34073;BME280;20346;52.702;16.886;2023-04-08T07:42:52;101729.79;;;12.10;71.28
34073;BME280;20346;52.702;16.886;2023-04-08T07:45:26;101725.88;;;11.98;71.22
34073;BME280;20346;52.702;16.886;2023-04-08T07:50:46;101731.88;;;11.48;70.93
34073;BME280;20346;52.702;16.886;2023-04-08T07:53:20;101734.16;;;11.35;70.95
34073;BME280;20346;52.702;16.886;2023-04-08T07:55:55;101737.80;;;11.12;70.62
34073;BME280;20346;52.702;16.886;2023-04-08T07:58:30;101743.17;;;10.87;70.67
34073;BME280;20346;52.702;16.886;2023-04-08T08:01:04;101748.48;;;10.70;70.63
34073;BME280;20346;52.702;16.886;2023-04-08T08:03:38;101748.80;;;10.47;70.44
34073;BME280;20346;52.702;16.886;2023-04-08T08:06:12;101747.19;;;10.24;70.46
34073;BME280;20346;52.702;16.886;2023-04-08T08:08:47;101752.40;;;10.00;70.20
34073;BME280;20346;52.702;16.886;2023-04-08T08:11:22;101754.16;;;9.70;70.18
34073;BME280;20346;52.702;16.886;2023-04-08T08:13:55;101757.80;;;9.47;70.42
34073;BME280;20346;52.702;16.886;2023-04-08T08:16:29;101762.70;;;9.33;70.35
34073;BME280;20346;52.702;16.886;2023-04-08T08:19:02;101766.69;;;9.14;70.38
34073;BME280;20346;52.702;16.886;2023-04-08T08:21:36;101770.23;;;9.07;70.45
34073;BME280;20346;52.702;16.886;2023-04-08T08:24:09;101773.02;;;8.91;70.39
34073;BME280;20346;52.702;16.886;2023-04-08T08:26:43;101775.89;;;8.84;70.53
34073;BME280;20346;52.702;16.886;2023-04-08T08:29:16;101776.55;;;8.79;70.33
34073;BME280;20346;52.702;16.886;2023-04-08T08:31:51;101772.69;;;8.72;70.35
34073;BME280;20346;52.702;16.886;2023-04-08T08:34:25;101776.95;;;8.69;70.42
34073;BME280;20346;52.702;16.886;2023-04-08T08:36:59;101779.39;;;8.71;70.42
34073;BME280;20346;52.702;16.886;2023-04-08T08:39:33;101774.95;;;8.74;70.43
34073;BME280;20346;52.702;16.886;2023-04-08T08:43:00;101779.86;;;8.68;70.08
34073;BME280;20346;52.702;16.886;2023-04-08T08:45:40;101781.71;;;8.65;70.23
34073;BME280;20346;52.702;16.886;2023-04-08T08:48:13;101784.51;;;8.68;70.28
34073;BME280;20346;52.702;16.886;2023-04-08T08:53:37;101788.70;;;8.74;70.32
34073;BME280;20346;52.702;16.886;2023-04-08T08:58:59;101794.58;;;8.77;70.12
34073;BME280;20346;52.702;16.886;2023-04-08T09:01:40;101795.29;;;8.79;70.00
34073;BME280;20346;52.702;16.886;2023-04-08T09:04:14;101796.17;;;8.82;70.10
34073;BME280;20346;52.702;16.886;2023-04-08T09:09:26;101800.89;;;8.92;70.07
34073;BME280;20346;52.702;16.886;2023-04-08T09:12:04;101805.92;;;8.97;70.04
34073;BME280;20346;52.702;16.886;2023-04-08T09:15:33;101808.48;;;9.11;70.12
34073;BME280;20346;52.702;16.886;2023-04-08T09:18:27;101807.38;;;9.23;69.77
34073;BME280;20346;52.702;16.886;2023-04-08T09:22:11;101815.98;;;9.25;69.80
34073;BME280;20346;52.702;16.886;2023-04-08T09:25:27;101819.96;;;9.26;69.66
34073;BME280;20346;52.702;16.886;2023-04-08T09:28:01;101823.73;;;9.25;69.75
34073;BME280;20346;52.702;16.886;2023-04-08T09:31:28;101824.77;;;9.26;69.62
34073;BME280;20346;52.702;16.886;2023-04-08T09:34:28;101820.73;;;9.17;69.41
34073;BME280;20346;52.702;16.886;2023-04-08T09:37:54;101823.13;;;9.15;69.58
34073;BME280;20346;52.702;16.886;2023-04-08T09:40:51;101822.34;;;9.22;69.59
34073;BME280;20346;52.702;16.886;2023-04-08T09:43:54;101822.42;;;9.33;69.68
34073;BME280;20346;52.702;16.886;2023-04-08T09:49:52;101821.48;;;9.69;69.24
34073;BME280;20346;52.702;16.886;2023-04-08T09:52:29;101820.70;;;9.82;69.31
34073;BME280;20346;52.702;16.886;2023-04-08T09:55:54;101816.86;;;10.07;69.29
34073;BME280;20346;52.702;16.886;2023-04-08T09:58:51;101812.93;;;10.13;69.16
34073;BME280;20346;52.702;16.886;2023-04-08T10:02:18;101819.80;;;10.08;69.11
34073;BME280;20346;52.702;16.886;2023-04-08T10:05:43;101815.33;;;10.10;69.05
34073;BME280;20346;52.702;16.886;2023-04-08T10:09:10;101818.92;;;10.06;69.16
34073;BME280;20346;52.702;16.886;2023-04-08T10:12:39;101814.10;;;10.05;69.01
34073;BME280;20346;52.702;16.886;2023-04-08T10:16:18;101813.07;;;10.07;69.23
34073;BME280;20346;52.702;16.886;2023-04-08T10:22:45;101811.14;;;9.99;68.71
34073;BME280;20346;52.702;16.886;2023-04-08T10:25:31;101807.16;;;9.97;68.98
34073;BME280;20346;52.702;16.886;2023-04-08T10:30:44;101811.25;;;9.87;68.67
34073;BME280;20346;52.702;16.886;2023-04-08T10:33:30;101809.70;;;9.87;68.53
34073;BME280;20346;52.702;16.886;2023-04-08T10:36:09;101812.98;;;9.85;68.53
34073;BME280;20346;52.702;16.886;2023-04-08T10:38:42;101806.27;;;9.90;68.30
34073;BME280;20346;52.702;16.886;2023-04-08T10:41:22;101809.38;;;9.92;68.49
34073;BME280;20346;52.702;16.886;2023-04-08T10:43:50;101809.58;;;9.97;68.67
34073;BME280;20346;52.702;16.886;2023-04-08T10:46:26;101809.77;;;10.01;68.50
34073;BME280;20346;52.702;16.886;2023-04-08T10:49:00;101811.54;;;10.10;68.68
34073;BME280;20346;52.702;16.886;2023-04-08T10:51:33;101808.17;;;10.21;68.54
34073;BME280;20346;52.702;16.886;2023-04-08T10:54:08;101808.73;;;10.27;68.48
34073;BME280;20346;52.702;16.886;2023-04-08T10:56:51;101810.14;;;10.33;68.34
34073;BME280;20346;52.702;16.886;2023-04-08T10:59:28;101808.08;;;10.40;68.51
34073;BME280;20346;52.702;16.886;2023-04-08T11:02:01;101802.56;;;10.44;68.12
34073;BME280;20346;52.702;16.886;2023-04-08T11:04:34;101803.77;;;10.46;68.09
34073;BME280;20346;52.702;16.886;2023-04-08T11:07:08;101807.05;;;10.47;68.06
34073;BME280;20346;52.702;16.886;2023-04-08T11:09:41;101806.02;;;10.40;67.99
34073;BME280;20346;52.702;16.886;2023-04-08T11:12:15;101808.09;;;10.42;68.35
34073;BME280;20346;52.702;16.886;2023-04-08T11:14:50;101807.23;;;10.47;67.71
34073;BME280;20346;52.702;16.886;2023-04-08T11:17:23;101806.35;;;10.41;67.99
34073;BME280;20346;52.702;16.886;2023-04-08T11:19:57;101804.30;;;10.46;68.19
34073;BME280;20346;52.702;16.886;2023-04-08T11:22:31;101801.89;;;10.48;68.11
34073;BME280;20346;52.702;16.886;2023-04-08T11:25:04;101804.14;;;10.52;68.02
34073;BME280;20346;52.702;16.886;2023-04-08T11:27:38;101803.50;;;10.66;67.93
34073;BME280;20346;52.702;16.886;2023-04-08T11:30:13;101806.45;;;10.76;68.02
34073;BME280;20346;52.702;16.886;2023-04-08T11:32:46;101803.53;;;10.77;67.83
34073;BME280;20346;52.702;16.886;2023-04-08T11:35:20;101802.33;;;10.78;67.66
34073;BME280;20346;52.702;16.886;2023-04-08T11:37:53;101800.77;;;10.76;67.68
34073;BME280;20346;52.702;16.886;2023-04-08T11:40:27;101802.84;;;10.80;67.88
34073;BME280;20346;52.702;16.886;2023-04-08T11:43:10;101802.34;;;10.83;67.61
34073;BME280;20346;52.702;16.886;2023-04-08T11:45:51;101804.58;;;10.85;67.54
34073;BME280;20346;52.702;16.886;2023-04-08T11:48:31;101807.67;;;10.94;67.63
34073;BME280;20346;52.702;16.886;2023-04-08T11:51:14;101805.45;;;11.06;67.83
34073;BME280;20346;52.702;16.886;2023-04-08T11:53:57;101808.73;;;11.18;67.79
34073;BME280;20346;52.702;16.886;2023-04-08T11:56:44;101809.43;;;11.15;67.34
34073;BME280;20346;52.702;16.886;2023-04-08T11:59:25;101809.60;;;11.13;67.21
34073;BME280;20346;52.702;16.886;2023-04-08T12:02:06;101812.88;;;11.14;67.52
34073;BME280;20346;52.702;16.886;2023-04-08T12:04:45;101811.33;;;11.18;67.43
34073;BME280;20346;52.702;16.886;2023-04-08T12:07:25;101809.79;;;11.26;67.26
34073;BME280;20346;52.702;16.886;2023-04-08T12:10:06;101808.73;;;11.33;67.32
34073;BME280;20346;52.702;16.886;2023-04-08T12:12:45;101807.87;;;11.42;67.28
34073;BME280;20346;52.702;16.886;2023-04-08T12:15:25;101811.13;;;11.56;67.08
34073;BME280;20346;52.702;16.886;2023-04-08T12:18:05;101809.91;;;11.64;66.97
34073;BME280;20346;52.702;16.886;2023-04-08T12:20:47;101803.86;;;11.65;66.99
34073;BME280;20346;52.702;16.886;2023-04-08T12:23:26;101807.31;;;11.71;66.94
34073;BME280;20346;52.702;16.886;2023-04-08T12:26:08;101805.07;;;11.71;67.01
34073;BME280;20346;52.702;16.886;2023-04-08T12:28:47;101806.98;;;11.65;66.68
34073;BME280;20346;52.702;16.886;2023-04-08T12:31:27;101809.58;;;11.58;66.65
34073;BME280;20346;52.702;16.886;2023-04-08T12:34:07;101809.05;;;11.53;66.65
34073;BME280;20346;52.702;16.886;2023-04-08T12:36:47;101806.64;;;11.46;66.34
34073;BME280;20346;52.702;16.886;2023-04-08T12:39:27;101806.33;;;11.43;66.63
34073;BME280;20346;52.702;16.886;2023-04-08T12:42:07;101800.09;;;11.44;66.62
34073;BME280;20346;52.702;16.886;2023-04-08T12:44:47;101803.57;;;11.42;66.05
34073;BME280;20346;52.702;16.886;2023-04-08T12:47:27;101802.19;;;11.36;66.23
34073;BME280;20346;52.702;16.886;2023-04-08T12:50:10;101798.57;;;11.34;66.38
34073;BME280;20346;52.702;16.886;2023-04-08T12:52:50;101798.22;;;11.35;66.34
34073;BME280;20346;52.702;16.886;2023-04-08T12:55:31;101799.08;;;11.37;66.20
34073;BME280;20346;52.702;16.886;2023-04-08T12:58:12;101797.18;;;11.39;66.21
34073;BME280;20346;52.702;16.886;2023-04-08T13:00:51;101798.71;;;11.44;66.24
34073;BME280;20346;52.702;16.886;2023-04-08T13:03:31;101796.63;;;11.45;66.05
34073;BME280;20346;52.702;16.886;2023-04-08T13:06:12;101794.73;;;11.48;66.09
34073;BME280;20346;52.702;16.886;2023-04-08T13:08:52;101793.70;;;11.51;65.95
34073;BME280;20346;52.702;16.886;2023-04-08T13:11:33;101792.64;;;11.57;65.81
34073;BME280;20346;52.702;16.886;2023-04-08T13:14:13;101792.48;;;11.62;65.95
34073;BME280;20346;52.702;16.886;2023-04-08T13:16:52;101793.15;;;11.67;66.13
34073;BME280;20346;52.702;16.886;2023-04-08T13:19:43;101789.70;;;11.78;65.94
34073;BME280;20346;52.702;16.886;2023-04-08T13:22:23;101787.10;;;11.89;65.93
34073;BME280;20346;52.702;16.886;2023-04-08T13:25:03;101787.74;;;11.97;65.76
34073;BME280;20346;52.702;16.886;2023-04-08T13:27:43;101786.16;;;12.03;65.90
34073;BME280;20346;52.702;16.886;2023-04-08T13:30:23;101784.41;;;12.12;65.89
34073;BME280;20346;52.702;16.886;2023-04-08T13:33:03;101791.13;;;12.19;65.53
34073;BME280;20346;52.702;16.886;2023-04-08T13:35:43;101792.00;;;12.18;64.99
34073;BME280;20346;52.702;16.886;2023-04-08T13:38:23;101794.94;;;12.16;65.34
34073;BME280;20346;52.702;16.886;2023-04-08T13:41:03;101790.28;;;12.12;65.26
34073;BME280;20346;52.702;16.886;2023-04-08T13:43:43;101788.39;;;12.09;65.34
34073;BME280;20346;52.702;16.886;2023-04-08T13:46:23;101789.60;;;12.08;65.30
34073;BME280;20346;52.702;16.886;2023-04-08T13:49:03;101791.17;;;12.05;65.29
34073;BME280;20346;52.702;16.886;2023-04-08T13:51:46;101788.77;;;11.99;65.01
34073;BME280;20346;52.702;16.886;2023-04-08T13:54:52;101789.34;;;11.92;64.88
34073;BME280;20346;52.702;16.886;2023-04-08T13:57:26;101790.39;;;11.87;64.94
34073;BME280;20346;52.702;16.886;2023-04-08T13:59:59;101790.20;;;11.91;65.23
34073;BME280;20346;52.702;16.886;2023-04-08T14:03:03;101787.39;;;11.98;64.93
34073;BME280;20346;52.702;16.886;2023-04-08T14:05:37;101786.68;;;12.02;65.01
34073;BME280;20346;52.702;16.886;2023-04-08T14:08:13;101786.16;;;12.02;64.70
34073;BME280;20346;52.702;16.886;2023-04-08T14:10:47;101785.66;;;12.01;64.70
34073;BME280;20346;52.702;16.886;2023-04-08T14:13:20;101787.04;;;11.99;64.40
34073;BME280;20346;52.702;16.886;2023-04-08T14:15:54;101785.01;;;11.93;64.61
34073;BME280;20346;52.702;16.886;2023-04-08T14:18:28;101785.20;;;11.89;64.74
34073;BME280;20346;52.702;16.886;2023-04-08T14:21:12;101785.39;;;11.83;64.62
34073;BME280;20346;52.702;16.886;2023-04-08T14:24:06;101783.30;;;11.76;64.47
34073;BME280;20346;52.702;16.886;2023-04-08T14:26:39;101780.71;;;11.70;64.44
34073;BME280;20346;52.702;16.886;2023-04-08T14:29:44;101778.65;;;11.63;64.53
34073;BME280;20346;52.702;16.886;2023-04-08T14:33:10;101780.56;;;11.57;64.41
34073;BME280;20346;52.702;16.886;2023-04-08T14:35:47;101776.77;;;11.52;64.46
34073;BME280;20346;52.702;16.886;2023-04-08T14:38:21;101773.83;;;11.49;64.44
34073;BME280;20346;52.702;16.886;2023-04-08T14:40:55;101774.35;;;11.49;64.57
34073;BME280;20346;52.702;16.886;2023-04-08T14:44:21;101775.22;;;11.51;64.49
34073;BME280;20346;52.702;16.886;2023-04-08T14:46:55;101773.14;;;11.54;64.55
34073;BME280;20346;52.702;16.886;2023-04-08T14:49:28;101769.50;;;11.60;64.55
34073;BME280;20346;52.702;16.886;2023-04-08T14:52:13;101768.11;;;11.68;64.56
34073;BME280;20346;52.702;16.886;2023-04-08T14:54:46;101767.77;;;11.76;64.46
34073;BME280;20346;52.702;16.886;2023-04-08T14:58:14;101765.86;;;11.82;64.38
34073;BME280;20346;52.702;16.886;2023-04-08T15:01:11;101766.72;;;11.87;64.31
34073;BME280;20346;52.702;16.886;2023-04-08T15:04:12;101763.59;;;11.90;64.10
34073;BME280;20346;52.702;16.886;2023-04-08T15:06:45;101762.02;;;11.95;63.94
34073;BME280;20346;52.702;16.886;2023-04-08T15:09:21;101761.47;;;11.99;64.06
34073;BME280;20346;52.702;16.886;2023-04-08T15:12:47;101760.41;;;12.05;64.08
34073;BME280;20346;52.702;16.886;2023-04-08T15:15:53;101760.20;;;12.13;64.10
34073;BME280;20346;52.702;16.886;2023-04-08T15:18:27;101759.99;;;12.21;64.18
34073;BME280;20346;52.702;16.886;2023-04-08T15:21:00;101761.53;;;12.27;63.92
34073;BME280;20346;52.702;16.886;2023-04-08T15:23:54;101760.14;;;12.26;63.72
34073;BME280;20346;52.702;16.886;2023-04-08T15:26:30;101762.58;;;12.25;63.81
34073;BME280;20346;52.702;16.886;2023-04-08T15:29:04;101762.58;;;12.23;63.82
34073;BME280;20346;52.702;16.886;2023-04-08T15:31:46;101764.83;;;12.23;63.88
34073;BME280;20346;52.702;16.886;2023-04-08T15:34:20;101763.10;;;12.22;63.84
34073;BME280;20346;52.702;16.886;2023-04-08T15:36:54;101763.64;;;12.19;63.75
34073;BME280;20346;52.702;16.886;2023-04-08T15:39:51;101765.73;;;12.11;63.52
34073;BME280;20346;52.702;16.886;2023-04-08T15:42:25;101766.62;;;12.07;63.63
34073;BME280;20346;52.702;16.886;2023-04-08T15:44:58;101767.32;;;12.04;63.59
34073;BME280;20346;52.702;16.886;2023-04-08T15:47:32;101769.23;;;12.01;63.49
34073;BME280;20346;52.702;16.886;2023-04-08T15:51:03;101769.60;;;11.97;63.63
34073;BME280;20346;52.702;16.886;2023-04-08T15:53:36;101772.05;;;11.95;63.58
34073;BME280;20346;52.702;16.886;2023-04-08T15:57:02;101772.75;;;11.90;63.43
34073;BME280;20346;52.702;16.886;2023-04-08T16:00:30;101775.35;;;11.87;63.53
34073;BME280;20346;52.702;16.886;2023-04-08T16:03:07;101779.00;;;11.83;63.35
34073;BME280;20346;52.702;16.886;2023-04-08T16:06:34;101779.00;;;11.78;63.31
34073;BME280;20346;52.702;16.886;2023-04-08T16:09:12;101781.73;;;11.74;63.04
34073;BME280;20346;52.702;16.886;2023-04-08T16:12:38;101783.13;;;11.69;63.11
34073;BME280;20346;52.702;16.886;2023-04-08T16:16:06;101782.96;;;11.65;63.19